Time;durP1;ratioP1;P1;durP2;ratioP2;P2;SDS_P1;SDS_P2;PMS_P1;PMS_P2;Temp;Humidity;BMP_temperature;BMP_pressure;BME280_temperature;BME280_humidity;BME280_pressure;Samples;Min_cycle;Max_cycle;Signal;HPM_P1;HPM_P2
2021/10/12 00:01:52;;;;;;;20.67;17.50;;;9.60;99.90;;;;;;4979811;28;20452;-83
2021/10/12 00:04:18;;;;;;;20.70;16.20;;;9.60;99.90;;;;;;4980070;28;20473;-82
2021/10/12 00:06:45;;;;;;;20.75;17.15;;;9.50;99.90;;;;;;4979727;28;20217;-82
2021/10/12 00:09:12;;;;;;;19.10;16.10;;;9.50;99.90;;;;;;4982475;28;20210;-82
2021/10/12 00:11:39;;;;;;;23.20;18.48;;;9.40;99.90;;;;;;4999112;28;20708;-80
2021/10/12 00:14:05;;;;;;;22.08;16.35;;;9.40;99.90;;;;;;4998536;28;20228;-82
2021/10/12 00:16:34;;;;;;;23.52;19.02;;;9.40;99.90;;;;;;4979703;28;20616;-82
2021/10/12 00:19:00;;;;;;;40.60;19.65;;;9.20;99.90;;;;;;4983895;28;20604;-81
2021/10/12 00:21:27;;;;;;;22.90;19.95;;;9.00;99.90;;;;;;5005404;28;20218;-80
2021/10/12 00:23:54;;;;;;;31.98;22.05;;;8.90;99.90;;;;;;5005749;28;20241;-82
2021/10/12 00:26:21;;;;;;;27.90;21.63;;;8.90;99.90;;;;;;4986922;28;20582;-83
2021/10/12 00:28:48;;;;;;;27.15;22.17;;;8.80;99.90;;;;;;4986255;28;20218;-82
2021/10/12 00:31:15;;;;;;;28.23;21.88;;;8.80;99.90;;;;;;5004909;28;20201;-83
2021/10/12 00:33:43;;;;;;;29.52;22.17;;;8.80;99.90;;;;;;5005907;28;20613;-82
2021/10/12 00:36:10;;;;;;;31.50;22.33;;;8.80;99.90;;;;;;4989839;28;20213;-83
2021/10/12 00:38:37;;;;;;;31.63;24.67;;;8.80;99.90;;;;;;4998041;28;20207;-82
2021/10/12 00:41:07;;;;;;;37.25;26.52;;;8.70;99.90;;;;;;5005290;28;20240;-80
2021/10/12 00:43:34;;;;;;;31.52;23.50;;;8.70;99.90;;;;;;4993777;28;20232;-82
2021/10/12 00:46:01;;;;;;;37.20;24.90;;;8.80;99.90;;;;;;4985669;28;20253;-82
2021/10/12 00:48:28;;;;;;;31.08;24.85;;;8.80;99.90;;;;;;4995877;28;20208;-82
2021/10/12 00:50:56;;;;;;;31.38;24.95;;;8.90;99.90;;;;;;5005091;28;20212;-82
2021/10/12 00:53:23;;;;;;;31.92;23.33;;;8.90;99.90;;;;;;4995659;28;20220;-82
2021/10/12 00:55:50;;;;;;;31.48;22.35;;;9.00;99.90;;;;;;4985594;28;20217;-80
2021/10/12 00:58:17;;;;;;;23.45;20.02;;;9.10;99.90;;;;;;4993324;28;20202;-82
2021/10/12 01:00:43;;;;;;;28.20;20.00;;;9.30;99.90;;;;;;5005045;28;20239;-82
2021/10/12 01:03:10;;;;;;;29.17;21.23;;;9.30;99.90;;;;;;4998427;28;20251;-82
2021/10/12 01:05:37;;;;;;;30.20;21.33;;;9.30;99.90;;;;;;4987211;28;20210;-82
2021/10/12 01:08:06;;;;;;;30.23;22.17;;;9.40;99.90;;;;;;5004799;28;20705;-82
2021/10/12 01:10:33;;;;;;;24.02;19.77;;;9.40;99.90;;;;;;5004493;28;20204;-83
2021/10/12 01:13:03;;;;;;;27.88;19.13;;;9.50;99.90;;;;;;4985460;28;20233;-82
2021/10/12 01:15:32;;;;;;;23.45;17.80;;;9.50;99.90;;;;;;4984986;28;20214;-79
2021/10/12 01:17:59;;;;;;;24.08;21.20;;;9.50;99.90;;;;;;5005278;28;20314;-80
2021/10/12 01:20:27;;;;;;;30.67;20.80;;;9.60;99.90;;;;;;5003003;28;20220;-82
2021/10/12 01:22:55;;;;;;;22.00;19.10;;;9.60;99.90;;;;;;5004560;28;20732;-82
2021/10/12 01:25:22;;;;;;;23.67;19.25;;;9.60;99.90;;;;;;4989539;28;20452;-82
2021/10/12 01:27:49;;;;;;;27.58;18.48;;;9.60;99.90;;;;;;4990981;28;20610;-82
2021/10/12 01:30:16;;;;;;;23.33;19.85;;;9.60;99.90;;;;;;5004041;28;20205;-83
2021/10/12 01:32:45;;;;;;;23.73;19.47;;;9.60;99.90;;;;;;4990040;28;20202;-80
2021/10/12 01:35:14;;;;;;;26.90;19.35;;;9.60;99.90;;;;;;5004088;28;20464;-80
2021/10/12 01:37:41;;;;;;;22.52;17.95;;;9.60;99.90;;;;;;4985781;28;20211;-81
2021/10/12 01:40:12;;;;;;;23.63;18.63;;;9.60;99.90;;;;;;4985318;28;20623;-82
2021/10/12 01:42:39;;;;;;;20.80;17.65;;;9.60;99.90;;;;;;5002418;28;20451;-81
2021/10/12 01:45:08;;;;;;;21.67;17.95;;;9.60;99.90;;;;;;5001167;28;20212;-81
2021/10/12 01:47:35;;;;;;;21.75;17.70;;;9.60;99.90;;;;;;4983133;28;20202;-82
2021/10/12 01:50:02;;;;;;;24.38;18.02;;;9.60;99.90;;;;;;4982288;28;20212;-83
2021/10/12 01:52:29;;;;;;;28.27;20.23;;;9.60;99.90;;;;;;4998423;28;20216;-80
2021/10/12 01:54:56;;;;;;;24.48;19.38;;;9.60;99.90;;;;;;5001745;28;20233;-82
2021/10/12 01:57:24;;;;;;;28.35;21.20;;;9.60;99.90;;;;;;4986320;28;20205;-82
2021/10/12 01:59:51;;;;;;;21.33;18.10;;;9.50;99.90;;;;;;4982478;28;21033;-82
2021/10/12 02:02:18;;;;;;;27.73;19.37;;;9.60;99.90;;;;;;4983101;28;20815;-80
2021/10/12 02:04:44;;;;;;;24.27;20.07;;;9.60;99.90;;;;;;4981993;28;20472;-83
2021/10/12 02:07:11;;;;;;;23.00;18.40;;;9.50;99.90;;;;;;4995863;28;20463;-82
2021/10/12 02:09:38;;;;;;;25.35;20.13;;;9.60;99.90;;;;;;5001480;28;20452;-80
2021/10/12 02:12:05;;;;;;;24.65;19.05;;;9.60;99.90;;;;;;4987741;28;20585;-82
2021/10/12 02:14:33;;;;;;;21.30;17.55;;;9.60;99.90;;;;;;4981809;28;20240;-81
2021/10/12 02:17:00;;;;;;;21.58;18.90;;;9.60;99.90;;;;;;4993417;28;20228;-82
2021/10/12 02:19:27;;;;;;;21.10;18.80;;;9.70;99.90;;;;;;5000912;28;20226;-82
2021/10/12 02:21:54;;;;;;;23.83;18.70;;;9.70;99.90;;;;;;4990150;28;20215;-80
2021/10/12 02:24:21;;;;;;;26.65;20.35;;;9.70;99.90;;;;;;4981871;28;20482;-82
2021/10/12 02:26:47;;;;;;;25.23;19.00;;;9.70;99.90;;;;;;4991349;28;20205;-81
2021/10/12 02:29:14;;;;;;;26.52;19.00;;;9.80;99.90;;;;;;4995331;28;20222;-81
2021/10/12 02:31:42;;;;;;;23.40;19.15;;;9.80;99.90;;;;;;4981569;28;20219;-82
2021/10/12 02:34:09;;;;;;;23.33;18.43;;;9.90;99.90;;;;;;4986472;28;20235;-82
2021/10/12 02:36:36;;;;;;;26.55;21.65;;;9.90;99.90;;;;;;5001114;28;20841;-82
2021/10/12 02:39:03;;;;;;;25.43;18.53;;;9.90;99.90;;;;;;4997481;28;20203;-81
2021/10/12 02:41:29;;;;;;;24.53;18.03;;;9.90;99.90;;;;;;4981083;28;21036;-83
2021/10/12 02:43:56;;;;;;;20.77;16.58;;;9.80;99.90;;;;;;4982196;28;20473;-82
2021/10/12 02:46:23;;;;;;;25.70;18.42;;;9.80;99.90;;;;;;4992400;28;20217;-82
2021/10/12 02:48:51;;;;;;;21.77;17.20;;;9.80;99.90;;;;;;4980929;28;20213;-82
2021/10/12 02:51:17;;;;;;;22.00;18.20;;;9.80;99.90;;;;;;4981232;28;20453;-82
2021/10/12 02:53:44;;;;;;;26.05;17.73;;;9.80;99.90;;;;;;4981152;28;20238;-82
2021/10/12 02:56:11;;;;;;;21.05;17.92;;;9.90;99.90;;;;;;4980608;28;20228;-81
2021/10/12 02:58:38;;;;;;;20.48;16.00;;;9.90;99.90;;;;;;4998156;28;20207;-82
2021/10/12 03:01:05;;;;;;;19.60;16.15;;;9.90;99.90;;;;;;5000754;28;20306;-82
2021/10/12 03:03:31;;;;;;;19.02;16.92;;;9.90;99.90;;;;;;4984794;28;20624;-82
2021/10/12 03:05:59;;;;;;;20.25;17.90;;;9.90;99.90;;;;;;4985177;28;20212;-82
2021/10/12 03:08:26;;;;;;;22.70;17.65;;;9.90;99.90;;;;;;5000560;28;20220;-82
2021/10/12 03:10:53;;;;;;;22.63;16.88;;;9.90;99.90;;;;;;4996979;28;20201;-81
2021/10/12 03:13:20;;;;;;;20.20;17.38;;;9.80;99.90;;;;;;4980446;28;20229;-82
2021/10/12 03:15:47;;;;;;;23.98;17.15;;;9.80;99.90;;;;;;4982652;28;20206;-83
2021/10/12 03:18:13;;;;;;;19.90;15.77;;;9.80;99.90;;;;;;5000098;28;20220;-81
2021/10/12 03:20:40;;;;;;;20.88;16.02;;;9.90;99.90;;;;;;5000040;28;20226;-82
2021/10/12 03:23:09;;;;;;;23.10;17.75;;;9.90;99.90;;;;;;4979728;28;20295;-83
2021/10/12 03:25:36;;;;;;;20.67;16.55;;;9.90;99.90;;;;;;4987122;28;20212;-80
2021/10/12 03:28:03;;;;;;;19.10;16.80;;;9.90;99.90;;;;;;5000154;28;20222;-83
2021/10/12 03:30:30;;;;;;;18.35;15.77;;;9.80;99.90;;;;;;4993655;28;20456;-82
2021/10/12 03:32:56;;;;;;;21.30;17.10;;;9.90;99.90;;;;;;4980004;28;20604;-82
2021/10/12 03:35:29;;;;;;;22.33;15.43;;;9.80;99.90;;;;;;4984254;28;20456;-83
2021/10/12 03:37:57;;;;;;;19.48;15.00;;;9.90;99.90;;;;;;5000117;28;20208;-82
2021/10/12 03:40:25;;;;;;;19.92;17.50;;;9.80;99.90;;;;;;4995890;28;20217;-83
2021/10/12 03:42:52;;;;;;;21.43;17.03;;;9.80;99.90;;;;;;4981041;28;20237;-82
2021/10/12 03:45:19;;;;;;;21.38;16.10;;;9.90;99.90;;;;;;4983880;28;20453;-82
2021/10/12 03:47:46;;;;;;;20.63;17.38;;;9.90;99.90;;;;;;5001273;28;20239;-80
2021/10/12 03:50:13;;;;;;;17.13;15.30;;;9.80;99.90;;;;;;4997229;28;20220;-82
2021/10/12 03:52:40;;;;;;;18.15;15.55;;;9.90;99.90;;;;;;4980005;28;20210;-83
2021/10/12 03:55:07;;;;;;;19.97;16.30;;;9.90;99.90;;;;;;4997956;28;20213;-82
2021/10/12 03:57:35;;;;;;;20.42;16.00;;;9.90;99.90;;;;;;4981619;28;20455;-83
2021/10/12 04:00:02;;;;;;;18.70;16.07;;;9.90;99.90;;;;;;4979738;28;20231;-83
2021/10/12 04:02:29;;;;;;;20.37;16.23;;;9.90;99.90;;;;;;4995803;28;20467;-83
2021/10/12 04:04:55;;;;;;;22.47;16.27;;;9.90;99.90;;;;;;4999792;28;20449;-83
2021/10/12 04:07:22;;;;;;;16.90;13.30;;;9.90;99.90;;;;;;4983511;28;20457;-81
2021/10/12 04:09:49;;;;;;;20.35;15.43;;;9.90;99.90;;;;;;4980297;28;20460;-83
2021/10/12 04:12:16;;;;;;;19.10;15.80;;;10.00;99.90;;;;;;4993282;28;20216;-83
2021/10/12 04:14:44;;;;;;;17.13;14.15;;;10.00;99.90;;;;;;4998849;28;20262;-83
2021/10/12 04:17:11;;;;;;;17.38;14.93;;;10.00;99.90;;;;;;4986372;28;20207;-82
2021/10/12 04:19:38;;;;;;;22.10;13.90;;;10.00;99.90;;;;;;4979682;28;20681;-83
2021/10/12 04:22:04;;;;;;;18.00;15.60;;;10.10;99.90;;;;;;4990116;28;20230;-83
2021/10/12 04:24:31;;;;;;;17.63;12.20;;;10.00;99.90;;;;;;4999260;28;20232;-83
2021/10/12 04:26:59;;;;;;;18.73;15.90;;;10.00;99.90;;;;;;4988511;28;20301;-81
2021/10/12 04:29:26;;;;;;;21.48;14.88;;;9.90;99.90;;;;;;4979965;28;20464;-83
2021/10/12 04:31:55;;;;;;;18.45;14.68;;;9.90;99.90;;;;;;4987934;28;20568;-83
2021/10/12 04:34:21;;;;;;;22.23;15.87;;;9.80;99.90;;;;;;4999199;28;20224;-83
2021/10/12 04:36:48;;;;;;;17.75;14.40;;;9.70;99.90;;;;;;4991138;28;20458;-83
2021/10/12 04:39:15;;;;;;;17.25;13.70;;;9.70;99.90;;;;;;4980123;28;20215;-83
2021/10/12 04:41:42;;;;;;;22.40;14.73;;;9.70;99.90;;;;;;4984850;28;20224;-82
2021/10/12 04:44:10;;;;;;;16.85;15.10;;;9.60;99.90;;;;;;4998804;28;20990;-83
2021/10/12 04:46:37;;;;;;;16.45;14.88;;;9.70;99.90;;;;;;4988944;28;20631;-83
2021/10/12 04:49:06;;;;;;;13.73;12.23;;;9.70;99.90;;;;;;4979725;28;20215;-84
2021/10/12 04:51:33;;;;;;;19.50;14.80;;;9.70;99.90;;;;;;4998300;28;20203;-83
2021/10/12 04:53:59;;;;;;;17.13;13.68;;;9.70;99.90;;;;;;4998368;28;20244;-83
2021/10/12 04:56:26;;;;;;;16.27;13.57;;;9.70;99.90;;;;;;4978119;28;20209;-84
2021/10/12 04:58:53;;;;;;;22.48;18.48;;;9.40;99.90;;;;;;4978841;28;20208;-83
2021/10/12 05:01:20;;;;;;;23.95;15.43;;;9.30;99.90;;;;;;4997762;28;20219;-81
2021/10/12 05:03:46;;;;;;;22.30;15.10;;;9.00;99.90;;;;;;4985507;28;20729;-83
2021/10/12 05:06:14;;;;;;;19.45;16.73;;;9.00;99.90;;;;;;4979428;28;20209;-83
2021/10/12 05:08:41;;;;;;;21.48;16.25;;;8.90;99.90;;;;;;4992345;28;20205;-83
2021/10/12 05:11:08;;;;;;;21.50;17.33;;;8.90;99.90;;;;;;4998360;28;20228;-81
2021/10/12 05:13:35;;;;;;;18.60;16.10;;;8.90;99.90;;;;;;4996205;28;20231;-83
2021/10/12 05:16:04;;;;;;;23.70;17.98;;;9.00;99.90;;;;;;4996694;28;20208;-83
2021/10/12 05:18:32;;;;;;;20.63;18.48;;;9.00;99.90;;;;;;5006997;28;20218;-82
2021/10/12 05:20:59;;;;;;;21.17;17.42;;;9.10;99.90;;;;;;5015719;28;20262;-82
2021/10/12 05:23:27;;;;;;;22.08;16.67;;;9.30;99.90;;;;;;5014640;28;20233;-81
2021/10/12 05:25:55;;;;;;;22.17;18.58;;;9.40;99.90;;;;;;5015736;28;20224;-82
2021/10/12 05:28:21;;;;;;;21.92;19.40;;;9.40;99.90;;;;;;4993117;28;20212;-85
2021/10/12 05:30:48;;;;;;;24.20;18.50;;;9.30;99.90;;;;;;4982765;28;20205;-85
2021/10/12 05:33:17;;;;;;;24.88;19.20;;;9.40;99.90;;;;;;4990863;28;20231;-85
2021/10/12 05:35:43;;;;;;;22.05;17.25;;;9.30;99.90;;;;;;4999056;28;20233;-85
2021/10/12 05:38:10;;;;;;;25.25;19.80;;;9.30;99.90;;;;;;4982778;28;20209;-84
2021/10/12 05:40:39;;;;;;;26.98;19.05;;;9.30;99.90;;;;;;4983393;28;20221;-85
2021/10/12 05:43:05;;;;;;;28.15;18.30;;;9.20;99.90;;;;;;5001542;28;20231;-84
2021/10/12 05:45:32;;;;;;;22.20;18.88;;;9.10;99.90;;;;;;5000978;28;20204;-85
2021/10/12 05:48:00;;;;;;;24.13;21.08;;;9.00;99.90;;;;;;4982041;28;20212;-82
2021/10/12 05:50:27;;;;;;;25.65;19.65;;;8.90;99.90;;;;;;4982117;28;20214;-84
2021/10/12 05:53:01;;;;;;;23.85;17.50;;;8.90;99.90;;;;;;4994303;28;20283;-83
2021/10/12 05:55:34;;;;;;;26.95;20.30;;;8.80;99.90;;;;;;5001687;28;20204;-83
2021/10/12 05:58:11;;;;;;;25.20;18.92;;;8.80;99.90;;;;;;4995408;28;20221;-84
2021/10/12 06:00:38;;;;;;;25.77;19.40;;;8.70;99.90;;;;;;4990582;28;20244;-82
2021/10/12 06:03:04;;;;;;;22.65;17.88;;;8.70;99.90;;;;;;5001348;28;20233;-83
2021/10/12 06:05:31;;;;;;;26.63;19.95;;;8.60;99.90;;;;;;5000544;28;20207;-82
2021/10/12 06:07:58;;;;;;;22.92;19.63;;;8.70;99.90;;;;;;5000542;28;20702;-81
2021/10/12 06:10:24;;;;;;;23.98;19.67;;;8.70;99.90;;;;;;5001004;28;20216;-82
2021/10/12 06:12:51;;;;;;;28.75;20.65;;;8.90;99.90;;;;;;4985758;28;20229;-83
2021/10/12 06:15:19;;;;;;;21.30;17.60;;;8.90;99.90;;;;;;4985317;28;20202;-83
2021/10/12 06:17:46;;;;;;;26.80;19.65;;;9.00;99.90;;;;;;4981658;28;20217;-82
2021/10/12 06:20:13;;;;;;;25.92;18.65;;;9.00;99.90;;;;;;4984855;28;20201;-82
2021/10/12 06:22:39;;;;;;;27.33;19.98;;;9.10;99.90;;;;;;5000732;28;20645;-80
2021/10/12 06:25:07;;;;;;;29.65;20.23;;;9.20;99.90;;;;;;4999331;28;20212;-80
2021/10/12 06:27:33;;;;;;;27.23;20.42;;;9.10;99.90;;;;;;5000294;28;20228;-83
2021/10/12 06:30:00;;;;;;;24.50;18.35;;;9.20;99.90;;;;;;4989239;28;20216;-82
2021/10/12 06:32:28;;;;;;;26.00;21.95;;;9.20;99.90;;;;;;4989000;28;20205;-81
2021/10/12 06:34:55;;;;;;;27.08;20.67;;;9.30;99.90;;;;;;4986474;28;20205;-80
2021/10/12 06:37:22;;;;;;;26.75;18.30;;;9.40;99.90;;;;;;4989105;28;20208;-82
2021/10/12 06:39:48;;;;;;;24.80;18.93;;;9.60;99.90;;;;;;4989753;28;20701;-82
2021/10/12 06:42:15;;;;;;;22.15;17.80;;;9.70;99.90;;;;;;4989074;28;20487;-82
2021/10/12 06:44:42;;;;;;;21.33;18.08;;;9.80;99.90;;;;;;4989942;28;20225;-82
2021/10/12 06:47:08;;;;;;;21.83;18.13;;;9.80;99.90;;;;;;4989401;28;20210;-81
2021/10/12 06:49:37;;;;;;;22.88;18.95;;;9.80;99.90;;;;;;4992545;28;20452;-83
2021/10/12 06:52:04;;;;;;;28.95;17.92;;;9.90;99.90;;;;;;4989951;28;20196;-82
2021/10/12 06:54:30;;;;;;;22.08;17.60;;;9.80;99.90;;;;;;4992050;28;20225;-81
2021/10/12 06:56:59;;;;;;;22.42;18.85;;;9.80;99.90;;;;;;4989945;28;20211;-81
2021/10/12 06:59:26;;;;;;;24.30;17.40;;;9.80;99.90;;;;;;4988823;28;20207;-81
2021/10/12 07:01:53;;;;;;;23.95;17.05;;;9.90;99.90;;;;;;4982679;28;20717;-81
2021/10/12 07:04:20;;;;;;;20.27;15.50;;;10.00;99.90;;;;;;4983024;28;20233;-81
2021/10/12 07:06:48;;;;;;;17.45;14.07;;;10.00;99.90;;;;;;4981134;28;20219;-81
2021/10/12 07:09:16;;;;;;;23.10;15.67;;;10.10;99.90;;;;;;4983903;28;20212;-81
2021/10/12 07:11:43;;;;;;;18.23;13.55;;;10.10;99.90;;;;;;4983763;28;20448;-80
2021/10/12 07:14:10;;;;;;;17.73;14.53;;;10.00;99.90;;;;;;4990890;28;20228;-81
2021/10/12 07:16:38;;;;;;;21.03;16.10;;;10.00;99.90;;;;;;4999359;28;20448;-82
2021/10/12 07:19:05;;;;;;;20.00;15.43;;;10.10;99.90;;;;;;5000655;28;20974;-81
2021/10/12 07:21:31;;;;;;;20.07;15.00;;;10.00;99.90;;;;;;5003791;28;20491;-81
2021/10/12 07:24:00;;;;;;;18.60;13.70;;;10.10;99.90;;;;;;5001572;28;20476;-85
2021/10/12 07:26:27;;;;;;;15.52;13.02;;;10.10;99.90;;;;;;4994519;28;20209;-85
2021/10/12 07:28:56;;;;;;;18.92;14.52;;;9.90;99.90;;;;;;5000606;28;20213;-82
2021/10/12 07:31:22;;;;;;;14.50;12.82;;;9.80;99.90;;;;;;4986685;28;20727;-81
2021/10/12 07:33:49;;;;;;;15.45;12.95;;;9.50;99.90;;;;;;4983975;28;20232;-82
2021/10/12 07:36:16;;;;;;;23.50;14.38;;;9.30;99.90;;;;;;5000554;28;20212;-80
2021/10/12 07:38:43;;;;;;;15.02;12.70;;;9.20;99.90;;;;;;4989538;28;20226;-85
2021/10/12 07:41:12;;;;;;;15.73;12.80;;;9.30;99.90;;;;;;4979333;28;20252;-84
2021/10/12 07:43:39;;;;;;;12.90;11.40;;;9.40;99.90;;;;;;4983604;28;20229;-82
2021/10/12 07:46:05;;;;;;;19.08;13.05;;;9.30;99.90;;;;;;4995698;28;20212;-82
2021/10/12 07:48:32;;;;;;;16.20;11.93;;;9.30;99.90;;;;;;4991086;28;20200;-82
2021/10/12 07:51:00;;;;;;;14.45;12.75;;;9.40;99.90;;;;;;4986812;28;20233;-83
2021/10/12 07:53:28;;;;;;;14.38;11.55;;;9.50;99.90;;;;;;4991794;28;20344;-81
2021/10/12 07:55:57;;;;;;;15.88;12.32;;;9.40;99.90;;;;;;4987772;28;20209;-82
2021/10/12 07:58:25;;;;;;;18.87;15.07;;;9.50;99.90;;;;;;4984090;28;20208;-82
2021/10/12 08:03:41;;;;;;;19.90;14.40;;;9.70;99.90;;;;;;4992862;28;20482;-86
2021/10/12 08:06:14;;;;;;;16.63;11.63;;;9.80;99.90;;;;;;4978352;28;20246;-85
2021/10/12 08:08:53;;;;;;;14.68;12.48;;;9.90;99.90;;;;;;4985289;28;20206;-86
2021/10/12 08:11:24;;;;;;;17.13;12.40;;;10.00;99.90;;;;;;4994131;28;20196;-79
2021/10/12 08:13:55;;;;;;;14.32;11.45;;;9.90;99.90;;;;;;4988479;28;20218;-82
2021/10/12 08:16:29;;;;;;;11.27;10.27;;;10.00;99.90;;;;;;4976132;28;20248;-83
2021/10/12 08:18:55;;;;;;;12.37;10.00;;;10.10;99.90;;;;;;4983148;28;20455;-84
2021/10/12 08:21:28;;;;;;;16.87;10.43;;;10.10;99.90;;;;;;4983626;28;20562;-84
2021/10/12 08:23:55;;;;;;;12.68;11.02;;;10.10;99.90;;;;;;4978300;28;20486;-80
2021/10/12 08:26:22;;;;;;;11.70;10.57;;;10.10;99.90;;;;;;4977393;28;20635;-84
2021/10/12 08:28:48;;;;;;;10.90;9.83;;;10.40;99.90;;;;;;4993649;28;20248;-84
2021/10/12 08:31:17;;;;;;;15.33;10.30;;;10.30;99.90;;;;;;4994141;28;20979;-82
2021/10/12 08:33:45;;;;;;;37.00;12.93;;;10.30;99.90;;;;;;4999638;28;20480;-85
2021/10/12 08:36:11;;;;;;;14.43;10.77;;;10.40;99.90;;;;;;4990275;28;20454;-83
2021/10/12 08:38:39;;;;;;;11.80;9.10;;;10.30;99.90;;;;;;4988271;28;20521;-82
2021/10/12 08:41:06;;;;;;;15.73;10.00;;;10.40;99.90;;;;;;4990573;28;20498;-81
2021/10/12 08:43:35;;;;;;;12.10;9.60;;;10.50;99.90;;;;;;4999523;28;20476;-83
2021/10/12 08:46:03;;;;;;;16.73;10.80;;;10.60;99.90;;;;;;5001954;28;20661;-80
2021/10/12 08:48:32;;;;;;;15.93;9.60;;;10.70;99.90;;;;;;4984880;28;20496;-80
2021/10/12 08:51:01;;;;;;;13.70;10.53;;;10.80;99.90;;;;;;4978584;28;20212;-82
2021/10/12 08:53:29;;;;;;;12.23;9.30;;;10.80;99.90;;;;;;4997851;28;20469;-81
2021/10/12 08:55:56;;;;;;;10.63;8.63;;;10.90;99.90;;;;;;4996717;28;20457;-80
2021/10/12 08:58:24;;;;;;;14.33;10.13;;;11.00;99.90;;;;;;4987373;28;20470;-79
2021/10/12 09:01:04;;;;;;;17.73;8.83;;;11.20;99.90;;;;;;4998728;28;21006;-81
2021/10/12 09:03:45;;;;;;;11.53;9.97;;;11.10;99.90;;;;;;4989050;28;20501;-83
2021/10/12 09:06:12;;;;;;;14.17;8.73;;;11.00;99.90;;;;;;4998259;28;20453;-82
2021/10/12 09:08:41;;;;;;;11.80;8.97;;;11.00;99.90;;;;;;4980545;28;20962;-82
2021/10/12 09:11:21;;;;;;;8.47;7.17;;;11.00;99.90;;;;;;4981636;28;20822;-84
2021/10/12 09:13:50;;;;;;;11.73;7.80;;;11.20;99.90;;;;;;5000272;28;20477;-83
2021/10/12 09:16:19;;;;;;;8.97;8.07;;;11.30;99.90;;;;;;4998216;28;20457;-82
2021/10/12 09:18:52;;;;;;;7.87;6.80;;;11.40;99.90;;;;;;4981263;28;20490;-84
2021/10/12 09:21:21;;;;;;;13.30;8.77;;;11.60;99.90;;;;;;4982740;28;20830;-82
2021/10/12 09:23:49;;;;;;;9.50;6.40;;;11.80;99.90;;;;;;4999469;28;20477;-82
2021/10/12 09:26:20;;;;;;;8.20;7.40;;;11.80;99.90;;;;;;4999549;28;20496;-83
2021/10/12 09:28:47;;;;;;;10.60;6.93;;;11.80;99.90;;;;;;4985238;28;20536;-80
2021/10/12 09:31:14;;;;;;;7.80;7.10;;;11.90;99.90;;;;;;5000574;28;20453;-82
2021/10/12 09:33:48;;;;;;;9.43;8.10;;;11.80;99.90;;;;;;5000436;28;20471;-81
2021/10/12 09:36:29;;;;;;;8.07;7.27;;;11.70;99.90;;;;;;5000070;28;20463;-82
2021/10/12 09:38:56;;;;;;;8.17;7.33;;;11.70;99.90;;;;;;4980917;28;20490;-82
2021/10/12 09:41:27;;;;;;;7.27;6.67;;;11.90;99.90;;;;;;4991748;28;20461;-83
2021/10/12 09:44:15;;;;;;;9.03;7.87;;;12.00;99.90;;;;;;4999817;28;20473;-83
2021/10/12 09:46:48;;;;;;;7.53;6.30;;;11.90;99.90;;;;;;4986064;28;20455;-82
2021/10/12 09:49:18;;;;;;;8.50;6.20;;;12.00;99.90;;;;;;4979437;28;20458;-82
2021/10/12 09:52:04;;;;;;;7.00;5.60;;;12.10;99.90;;;;;;4996308;28;20450;-82
2021/10/12 09:54:33;;;;;;;8.27;6.47;;;12.10;99.90;;;;;;4996113;28;20570;-82
2021/10/12 09:57:00;;;;;;;7.03;6.53;;;12.20;99.90;;;;;;4997127;28;20877;-85
2021/10/12 09:59:28;;;;;;;8.10;7.40;;;12.30;99.90;;;;;;4986298;28;20465;-82
2021/10/12 10:01:56;;;;;;;8.47;7.67;;;12.30;99.90;;;;;;4979546;28;20514;-79
2021/10/12 10:04:25;;;;;;;10.70;7.23;;;12.40;99.90;;;;;;4999046;28;20478;-82
2021/10/12 10:06:54;;;;;;;10.73;7.87;;;12.50;99.90;;;;;;4996819;28;20549;-80
2021/10/12 10:09:22;;;;;;;7.57;6.87;;;12.50;99.90;;;;;;4980538;28;20459;-84
2021/10/12 10:11:50;;;;;;;9.43;7.67;;;12.30;99.90;;;;;;4989275;28;20451;-82
2021/10/12 10:14:18;;;;;;;10.20;8.57;;;12.30;99.90;;;;;;4980126;28;20482;-81
2021/10/12 10:16:47;;;;;;;7.23;6.30;;;12.40;99.90;;;;;;4994252;28;20451;-82
2021/10/12 10:19:18;;;;;;;9.03;6.10;;;12.30;99.90;;;;;;5001568;28;20845;-81
2021/10/12 10:21:48;;;;;;;9.67;8.67;;;12.10;99.90;;;;;;4987993;28;20830;-82
2021/10/12 10:24:44;;;;;;;6.93;6.17;;;11.70;99.90;;;;;;4981827;28;20475;-85
2021/10/12 10:27:32;;;;;;;7.40;6.70;;;11.70;99.90;;;;;;4986419;28;20463;-79
2021/10/12 10:30:22;;;;;;;7.23;6.50;;;11.70;99.90;;;;;;4992511;28;20449;-83
2021/10/12 10:32:51;;;;;;;9.13;6.20;;;11.80;99.90;;;;;;5010640;28;21087;-84
2021/10/12 10:35:42;;;;;;;7.47;6.27;;;11.80;99.90;;;;;;5000741;28;20452;-84
2021/10/12 10:38:26;;;;;;;7.80;6.13;;;11.90;99.90;;;;;;4996501;28;20455;-84
2021/10/12 10:41:34;;;;;;;5.87;5.30;;;11.90;99.90;;;;;;4979829;28;20483;-85
2021/10/12 10:44:02;;;;;;;8.63;5.07;;;11.80;99.90;;;;;;4980005;28;20996;-83
2021/10/12 10:46:50;;;;;;;6.63;5.37;;;11.60;99.90;;;;;;4980415;28;20462;-83
2021/10/12 10:49:19;;;;;;;10.07;6.07;;;11.70;99.90;;;;;;4979743;28;20445;-85
2021/10/12 10:51:56;;;;;;;7.87;7.27;;;11.60;99.90;;;;;;4993919;28;20451;-83
2021/10/12 10:55:01;;;;;;;7.70;6.60;;;11.90;99.90;;;;;;4999915;28;20478;-83
2021/10/12 10:57:30;;;;;;;8.67;6.27;;;12.20;99.90;;;;;;4998916;28;20453;-83
2021/10/12 11:00:25;;;;;;;6.50;5.90;;;12.60;99.90;;;;;;4998910;28;20471;-82
2021/10/12 11:02:54;;;;;;;7.30;6.70;;;13.00;99.90;;;;;;5008039;28;20528;-82
2021/10/12 11:05:38;;;;;;;7.97;4.70;;;13.30;99.90;;;;;;5008606;28;20461;-81
2021/10/12 11:08:17;;;;;;;5.30;4.87;;;13.30;99.90;;;;;;4996436;28;20458;-80
2021/10/12 11:10:45;;;;;;;7.63;4.87;;;13.30;99.90;;;;;;4980763;28;20473;-80
2021/10/12 11:13:35;;;;;;;7.10;5.33;;;13.10;99.90;;;;;;4998767;28;20472;-86
2021/10/12 11:16:04;;;;;;;7.37;5.53;;;13.20;99.90;;;;;;4998017;28;20451;-81
2021/10/12 11:18:31;;;;;;;6.93;5.60;;;13.20;99.90;;;;;;4983573;28;20450;-83
2021/10/12 11:21:00;;;;;;;5.93;5.30;;;12.70;99.90;;;;;;4989983;28;20456;-82
2021/10/12 11:23:29;;;;;;;8.37;7.07;;;12.60;99.90;;;;;;4988206;28;20493;-80
2021/10/12 11:25:58;;;;;;;7.63;6.80;;;12.30;99.90;;;;;;5000414;28;20458;-81
2021/10/12 11:28:27;;;;;;;8.03;7.23;;;12.20;99.90;;;;;;4998658;28;20459;-79
2021/10/12 11:30:55;;;;;;;9.37;8.00;;;11.90;99.90;;;;;;4998752;28;20459;-79
2021/10/12 11:33:39;;;;;;;10.17;8.60;;;11.70;99.90;;;;;;4992323;28;20475;-79
2021/10/12 11:36:08;;;;;;;10.73;7.90;;;11.60;99.90;;;;;;4979000;28;20799;-80
2021/10/12 11:38:37;;;;;;;12.63;10.13;;;11.60;99.90;;;;;;4986628;28;20457;-79
2021/10/12 11:41:22;;;;;;;11.30;8.63;;;11.50;99.90;;;;;;4998699;28;20450;-80
2021/10/12 11:43:50;;;;;;;9.87;8.07;;;11.40;99.90;;;;;;4988301;28;20526;-81
2021/10/12 11:46:31;;;;;;;10.00;7.80;;;11.40;99.90;;;;;;4978273;28;20534;-81
2021/10/12 11:49:07;;;;;;;8.30;7.37;;;11.50;99.90;;;;;;4988649;28;20458;-83
2021/10/12 11:51:34;;;;;;;6.83;6.20;;;11.30;99.90;;;;;;4998636;28;20455;-82
2021/10/12 11:54:01;;;;;;;7.03;6.20;;;11.10;99.90;;;;;;4987884;28;20572;-81
2021/10/12 11:56:32;;;;;;;10.50;7.10;;;10.90;99.90;;;;;;4987371;28;20465;-83
2021/10/12 11:59:00;;;;;;;6.57;5.47;;;11.00;99.90;;;;;;4979411;28;20549;-84
2021/10/12 12:01:31;;;;;;;6.83;6.23;;;11.10;99.90;;;;;;4984940;28;20427;-81
2021/10/12 12:03:59;;;;;;;6.97;6.33;;;11.20;99.90;;;;;;4999163;28;20487;-83
2021/10/12 12:06:29;;;;;;;10.27;6.00;;;11.30;99.90;;;;;;4998539;28;20456;-83
2021/10/12 12:08:57;;;;;;;7.90;6.23;;;11.60;99.90;;;;;;4999525;28;20932;-83
2021/10/12 12:11:26;;;;;;;6.63;5.70;;;12.00;99.90;;;;;;4993523;28;20467;-83
2021/10/12 12:13:54;;;;;;;5.60;5.20;;;12.50;99.90;;;;;;4979701;28;20470;-83
2021/10/12 12:16:22;;;;;;;5.23;4.73;;;12.90;99.90;;;;;;4983575;28;20461;-80
2021/10/12 12:18:51;;;;;;;8.23;4.33;;;13.00;99.90;;;;;;4999282;28;20466;-80
2021/10/12 12:21:28;;;;;;;6.53;5.40;;;12.80;99.90;;;;;;4994837;28;20451;-80
2021/10/12 12:23:56;;;;;;;5.40;5.00;;;12.60;99.90;;;;;;4980103;28;20495;-80
2021/10/12 12:26:26;;;;;;;6.03;4.70;;;12.70;99.90;;;;;;4981043;28;20473;-80
2021/10/12 12:28:52;;;;;;;4.53;4.07;;;12.70;99.90;;;;;;4978704;28;20466;-80
2021/10/12 12:31:22;;;;;;;4.53;4.13;;;12.50;99.90;;;;;;4982497;28;20461;-83
2021/10/12 12:33:51;;;;;;;5.73;4.10;;;12.50;99.90;;;;;;4989492;28;20475;-80
2021/10/12 12:36:19;;;;;;;4.40;4.00;;;12.40;99.90;;;;;;4980713;28;20458;-79
2021/10/12 12:38:46;;;;;;;12.43;4.57;;;12.40;99.90;;;;;;4999064;28;20454;-81
2021/10/12 12:41:22;;;;;;;5.90;5.07;;;12.40;99.90;;;;;;4980508;28;20965;-80
2021/10/12 12:43:54;;;;;;;4.83;4.40;;;12.50;99.90;;;;;;4978286;28;20498;-81
2021/10/12 12:46:22;;;;;;;5.23;4.73;;;12.80;99.90;;;;;;4986189;28;20455;-81
2021/10/12 12:49:08;;;;;;;5.07;4.67;;;12.90;99.90;;;;;;4990828;28;20979;-84
2021/10/12 12:51:37;;;;;;;5.63;5.03;;;13.00;99.90;;;;;;4977931;28;20518;-80